CYLW/YLW METAR and TAF weather

Enter ICAO airport designator
Station Type Date Time Source
CYLW METAR 2018/07/21 11:00 UTC NOAA

CYLW 211100Z AUTO 00000KT 9SM OVC160 09/05 A3010 RMK SLP194


Station Type Date Time Source
CYLW Decoded METAR 2018/07/21 11:00 UTC NOAA

Kelowna Airport, Canada (CYLW) 49-58N 119-23W 430M
Jul 21, 2018 - 07:00 AM EDT / 2018.07.21 1100 UTC
Wind: Calm:0
Visibility: 9 mile(s):0
Sky conditions: overcast
Temperature: 48 F (9 C)
Dew Point: 41 F (5 C)
Relative Humidity: 75%
Pressure (altimeter): 30.1 in. Hg (1019 hPa)
ob: CYLW 211100Z AUTO 00000KT 9SM OVC160 09/05 A3010 RMK SLP194
cycle: 11

Station Type Date Time Source
CYLW TAF 2018/07/21 07:42 UTC NOAA

TAF CYLW 210639Z 2107/2119 VRB03KT P6SM SKC
RMK FCST BASED ON AUTO OBS. NXT FCST BY 211300Z


Example: see airport list